sensor_id;sensor_type;location;lat;lon;timestamp;P1;durP1;ratioP1;P2;durP2;ratioP2
7985;SDS011;4038;42.612;23.066;2023-02-28T00:00:21;35.17;;;31.70;;
7985;SDS011;4038;42.612;23.066;2023-02-28T00:02:47;36.43;;;32.77;;
7985;SDS011;4038;42.612;23.066;2023-02-28T00:05:14;32.80;;;29.63;;
7985;SDS011;4038;42.612;23.066;2023-02-28T00:07:42;32.45;;;29.45;;
7985;SDS011;4038;42.612;23.066;2023-02-28T00:10:09;31.20;;;28.43;;
7985;SDS011;4038;42.612;23.066;2023-02-28T00:12:37;30.07;;;27.20;;
7985;SDS011;4038;42.612;23.066;2023-02-28T00:15:06;31.03;;;28.40;;
7985;SDS011;4038;42.612;23.066;2023-02-28T00:17:34;30.93;;;27.90;;
7985;SDS011;4038;42.612;23.066;2023-02-28T00:19:59;30.30;;;27.80;;
7985;SDS011;4038;42.612;23.066;2023-02-28T00:22:37;32.57;;;29.50;;
7985;SDS011;4038;42.612;23.066;2023-02-28T00:25:04;32.43;;;29.23;;
7985;SDS011;4038;42.612;23.066;2023-02-28T00:27:32;33.07;;;30.07;;
7985;SDS011;4038;42.612;23.066;2023-02-28T00:29:57;33.80;;;30.77;;
7985;SDS011;4038;42.612;23.066;2023-02-28T00:32:23;33.03;;;29.83;;
7985;SDS011;4038;42.612;23.066;2023-02-28T00:34:48;27.67;;;25.07;;
7985;SDS011;4038;42.612;23.066;2023-02-28T00:37:13;27.20;;;24.87;;
7985;SDS011;4038;42.612;23.066;2023-02-28T00:39:39;25.37;;;23.27;;
7985;SDS011;4038;42.612;23.066;2023-02-28T00:42:05;25.07;;;23.07;;
7985;SDS011;4038;42.612;23.066;2023-02-28T00:44:31;23.70;;;21.90;;
7985;SDS011;4038;42.612;23.066;2023-02-28T00:46:57;24.90;;;23.10;;
7985;SDS011;4038;42.612;23.066;2023-02-28T00:49:24;24.63;;;22.70;;
7985;SDS011;4038;42.612;23.066;2023-02-28T00:51:51;24.43;;;22.53;;
7985;SDS011;4038;42.612;23.066;2023-02-28T00:54:17;25.80;;;23.57;;
7985;SDS011;4038;42.612;23.066;2023-02-28T00:56:42;25.40;;;23.20;;
7985;SDS011;4038;42.612;23.066;2023-02-28T00:59:08;24.77;;;22.77;;
7985;SDS011;4038;42.612;23.066;2023-02-28T01:01:34;23.87;;;21.93;;
7985;SDS011;4038;42.612;23.066;2023-02-28T01:03:59;24.97;;;22.87;;
7985;SDS011;4038;42.612;23.066;2023-02-28T01:06:25;24.27;;;22.20;;
7985;SDS011;4038;42.612;23.066;2023-02-28T01:08:50;24.90;;;22.97;;
7985;SDS011;4038;42.612;23.066;2023-02-28T01:11:16;25.27;;;23.17;;
7985;SDS011;4038;42.612;23.066;2023-02-28T01:13:42;25.60;;;23.50;;
7985;SDS011;4038;42.612;23.066;2023-02-28T01:16:09;25.50;;;23.50;;
7985;SDS011;4038;42.612;23.066;2023-02-28T01:18:35;25.40;;;23.37;;
7985;SDS011;4038;42.612;23.066;2023-02-28T01:21:05;26.03;;;23.63;;
7985;SDS011;4038;42.612;23.066;2023-02-28T01:23:31;96.07;;;26.70;;
7985;SDS011;4038;42.612;23.066;2023-02-28T01:25:58;132.43;;;26.50;;
7985;SDS011;4038;42.612;23.066;2023-02-28T01:28:29;186.90;;;26.50;;
7985;SDS011;4038;42.612;23.066;2023-02-28T01:30:54;165.83;;;26.07;;
7985;SDS011;4038;42.612;23.066;2023-02-28T01:33:20;218.40;;;27.00;;
7985;SDS011;4038;42.612;23.066;2023-02-28T01:35:45;183.87;;;26.20;;
7985;SDS011;4038;42.612;23.066;2023-02-28T01:38:11;157.43;;;27.57;;
7985;SDS011;4038;42.612;23.066;2023-02-28T01:40:36;119.30;;;25.47;;
7985;SDS011;4038;42.612;23.066;2023-02-28T01:43:01;104.33;;;23.93;;
7985;SDS011;4038;42.612;23.066;2023-02-28T01:45:28;88.97;;;23.77;;
7985;SDS011;4038;42.612;23.066;2023-02-28T01:47:55;118.87;;;25.57;;
7985;SDS011;4038;42.612;23.066;2023-02-28T01:50:28;79.97;;;24.87;;
7985;SDS011;4038;42.612;23.066;2023-02-28T01:52:59;66.40;;;23.87;;
7985;SDS011;4038;42.612;23.066;2023-02-28T01:55:29;45.73;;;25.00;;
7985;SDS011;4038;42.612;23.066;2023-02-28T01:57:58;47.17;;;25.40;;
7985;SDS011;4038;42.612;23.066;2023-02-28T02:00:27;80.10;;;27.57;;
7985;SDS011;4038;42.612;23.066;2023-02-28T02:02:58;79.07;;;27.33;;
7985;SDS011;4038;42.612;23.066;2023-02-28T02:05:29;50.40;;;28.13;;
7985;SDS011;4038;42.612;23.066;2023-02-28T02:08:04;40.23;;;26.87;;
7985;SDS011;4038;42.612;23.066;2023-02-28T02:10:33;81.70;;;27.30;;
7985;SDS011;4038;42.612;23.066;2023-02-28T02:19:07;62.63;;;26.70;;
7985;SDS011;4038;42.612;23.066;2023-02-28T02:27:47;84.03;;;26.87;;
7985;SDS011;4038;42.612;23.066;2023-02-28T02:33:40;83.67;;;26.43;;
7985;SDS011;4038;42.612;23.066;2023-02-28T02:36:39;77.47;;;26.03;;
7985;SDS011;4038;42.612;23.066;2023-02-28T02:39:16;78.87;;;25.40;;
7985;SDS011;4038;42.612;23.066;2023-02-28T02:41:52;86.50;;;26.10;;
7985;SDS011;4038;42.612;23.066;2023-02-28T02:44:42;86.27;;;26.23;;
7985;SDS011;4038;42.612;23.066;2023-02-28T02:47:14;142.50;;;27.10;;
7985;SDS011;4038;42.612;23.066;2023-02-28T02:49:52;73.90;;;27.13;;
7985;SDS011;4038;42.612;23.066;2023-02-28T02:52:22;122.90;;;27.77;;
7985;SDS011;4038;42.612;23.066;2023-02-28T02:54:53;141.90;;;29.87;;
7985;SDS011;4038;42.612;23.066;2023-02-28T02:57:25;150.60;;;29.87;;
7985;SDS011;4038;42.612;23.066;2023-02-28T02:59:57;218.20;;;31.27;;
7985;SDS011;4038;42.612;23.066;2023-02-28T03:02:25;143.10;;;28.67;;
7985;SDS011;4038;42.612;23.066;2023-02-28T03:04:53;123.37;;;26.77;;
7985;SDS011;4038;42.612;23.066;2023-02-28T03:07:25;191.37;;;28.07;;
7985;SDS011;4038;42.612;23.066;2023-02-28T03:09:52;121.87;;;27.67;;
7985;SDS011;4038;42.612;23.066;2023-02-28T03:12:19;226.77;;;30.67;;
7985;SDS011;4038;42.612;23.066;2023-02-28T03:17:38;155.23;;;28.33;;
7985;SDS011;4038;42.612;23.066;2023-02-28T03:20:35;126.27;;;29.87;;
7985;SDS011;4038;42.612;23.066;2023-02-28T03:33:44;95.70;;;25.43;;
7985;SDS011;4038;42.612;23.066;2023-02-28T03:36:27;46.90;;;24.37;;
7985;SDS011;4038;42.612;23.066;2023-02-28T03:38:58;104.53;;;28.47;;
7985;SDS011;4038;42.612;23.066;2023-02-28T03:44:35;188.27;;;32.13;;
7985;SDS011;4038;42.612;23.066;2023-02-28T03:47:07;242.30;;;33.07;;
7985;SDS011;4038;42.612;23.066;2023-02-28T03:49:42;106.23;;;31.20;;
7985;SDS011;4038;42.612;23.066;2023-02-28T03:52:19;104.27;;;30.00;;
7985;SDS011;4038;42.612;23.066;2023-02-28T03:54:50;178.17;;;32.97;;
7985;SDS011;4038;42.612;23.066;2023-02-28T03:57:38;214.07;;;35.37;;
7985;SDS011;4038;42.612;23.066;2023-02-28T04:00:10;80.77;;;31.10;;
7985;SDS011;4038;42.612;23.066;2023-02-28T04:02:42;164.23;;;33.07;;
7985;SDS011;4038;42.612;23.066;2023-02-28T04:05:08;160.03;;;33.17;;
7985;SDS011;4038;42.612;23.066;2023-02-28T04:07:34;140.63;;;33.80;;
7985;SDS011;4038;42.612;23.066;2023-02-28T04:10:00;116.23;;;32.47;;
7985;SDS011;4038;42.612;23.066;2023-02-28T04:12:25;157.73;;;34.83;;
7985;SDS011;4038;42.612;23.066;2023-02-28T04:14:51;128.33;;;32.63;;
7985;SDS011;4038;42.612;23.066;2023-02-28T04:17:16;196.97;;;32.80;;
7985;SDS011;4038;42.612;23.066;2023-02-28T04:19:42;162.67;;;31.67;;
7985;SDS011;4038;42.612;23.066;2023-02-28T04:22:08;146.20;;;32.07;;
7985;SDS011;4038;42.612;23.066;2023-02-28T04:24:34;205.10;;;34.30;;
7985;SDS011;4038;42.612;23.066;2023-02-28T04:27:00;239.77;;;36.13;;
7985;SDS011;4038;42.612;23.066;2023-02-28T04:29:29;95.77;;;31.13;;
7985;SDS011;4038;42.612;23.066;2023-02-28T04:31:57;215.00;;;35.17;;
7985;SDS011;4038;42.612;23.066;2023-02-28T04:34:24;177.83;;;32.37;;
7985;SDS011;4038;42.612;23.066;2023-02-28T04:36:50;213.30;;;35.33;;
7985;SDS011;4038;42.612;23.066;2023-02-28T04:39:18;186.33;;;32.83;;
7985;SDS011;4038;42.612;23.066;2023-02-28T04:41:44;113.10;;;29.90;;
7985;SDS011;4038;42.612;23.066;2023-02-28T04:44:11;211.43;;;32.37;;
7985;SDS011;4038;42.612;23.066;2023-02-28T04:46:36;159.40;;;29.83;;
7985;SDS011;4038;42.612;23.066;2023-02-28T04:49:02;155.33;;;31.20;;
7985;SDS011;4038;42.612;23.066;2023-02-28T04:51:27;188.53;;;31.00;;
7985;SDS011;4038;42.612;23.066;2023-02-28T04:53:53;149.87;;;28.50;;
7985;SDS011;4038;42.612;23.066;2023-02-28T04:56:19;217.80;;;31.30;;
7985;SDS011;4038;42.612;23.066;2023-02-28T04:58:45;199.20;;;31.40;;
7985;SDS011;4038;42.612;23.066;2023-02-28T05:01:19;154.50;;;28.43;;
7985;SDS011;4038;42.612;23.066;2023-02-28T05:03:51;149.47;;;29.57;;
7985;SDS011;4038;42.612;23.066;2023-02-28T05:06:18;84.17;;;29.77;;
7985;SDS011;4038;42.612;23.066;2023-02-28T05:08:45;100.67;;;29.03;;
7985;SDS011;4038;42.612;23.066;2023-02-28T05:11:21;126.57;;;28.70;;
7985;SDS011;4038;42.612;23.066;2023-02-28T05:14:04;87.63;;;26.30;;
7985;SDS011;4038;42.612;23.066;2023-02-28T05:16:32;75.23;;;26.53;;
7985;SDS011;4038;42.612;23.066;2023-02-28T05:18:58;60.50;;;25.40;;
7985;SDS011;4038;42.612;23.066;2023-02-28T05:21:26;85.93;;;25.37;;
7985;SDS011;4038;42.612;23.066;2023-02-28T05:23:56;59.97;;;23.50;;
7985;SDS011;4038;42.612;23.066;2023-02-28T05:26:23;90.07;;;26.43;;
7985;SDS011;4038;42.612;23.066;2023-02-28T05:28:49;54.83;;;25.60;;
7985;SDS011;4038;42.612;23.066;2023-02-28T05:31:15;102.17;;;28.23;;
7985;SDS011;4038;42.612;23.066;2023-02-28T05:33:40;79.90;;;26.53;;
7985;SDS011;4038;42.612;23.066;2023-02-28T05:36:06;125.90;;;31.47;;
7985;SDS011;4038;42.612;23.066;2023-02-28T05:38:32;77.13;;;27.80;;
7985;SDS011;4038;42.612;23.066;2023-02-28T05:40:57;135.23;;;27.50;;
7985;SDS011;4038;42.612;23.066;2023-02-28T05:43:23;140.73;;;28.73;;
7985;SDS011;4038;42.612;23.066;2023-02-28T05:45:49;64.70;;;25.33;;
7985;SDS011;4038;42.612;23.066;2023-02-28T05:48:14;72.53;;;27.30;;
7985;SDS011;4038;42.612;23.066;2023-02-28T05:50:40;87.40;;;28.07;;
7985;SDS011;4038;42.612;23.066;2023-02-28T05:53:06;77.73;;;26.17;;
7985;SDS011;4038;42.612;23.066;2023-02-28T05:55:31;60.87;;;26.93;;
7985;SDS011;4038;42.612;23.066;2023-02-28T05:57:56;74.83;;;26.57;;
7985;SDS011;4038;42.612;23.066;2023-02-28T06:00:22;107.13;;;28.50;;
7985;SDS011;4038;42.612;23.066;2023-02-28T06:02:48;105.33;;;28.97;;
7985;SDS011;4038;42.612;23.066;2023-02-28T06:05:15;55.70;;;28.30;;
7985;SDS011;4038;42.612;23.066;2023-02-28T06:07:42;210.70;;;34.60;;
7985;SDS011;4038;42.612;23.066;2023-02-28T06:10:09;126.00;;;31.40;;
7985;SDS011;4038;42.612;23.066;2023-02-28T06:12:36;133.03;;;32.73;;
7985;SDS011;4038;42.612;23.066;2023-02-28T06:15:02;217.00;;;34.83;;
7985;SDS011;4038;42.612;23.066;2023-02-28T06:17:28;85.50;;;30.93;;
7985;SDS011;4038;42.612;23.066;2023-02-28T06:19:53;53.40;;;29.50;;
7985;SDS011;4038;42.612;23.066;2023-02-28T06:22:18;69.53;;;31.70;;
7985;SDS011;4038;42.612;23.066;2023-02-28T06:24:44;106.10;;;32.17;;
7985;SDS011;4038;42.612;23.066;2023-02-28T06:27:09;128.43;;;33.17;;
7985;SDS011;4038;42.612;23.066;2023-02-28T06:29:36;111.17;;;33.93;;
7985;SDS011;4038;42.612;23.066;2023-02-28T06:32:08;125.27;;;34.43;;
7985;SDS011;4038;42.612;23.066;2023-02-28T06:34:33;73.20;;;31.37;;
7985;SDS011;4038;42.612;23.066;2023-02-28T06:36:58;67.37;;;32.50;;
7985;SDS011;4038;42.612;23.066;2023-02-28T06:39:27;52.47;;;32.17;;
7985;SDS011;4038;42.612;23.066;2023-02-28T06:41:56;76.50;;;32.00;;
7985;SDS011;4038;42.612;23.066;2023-02-28T06:44:22;132.67;;;33.07;;
7985;SDS011;4038;42.612;23.066;2023-02-28T06:46:48;101.90;;;31.87;;
7985;SDS011;4038;42.612;23.066;2023-02-28T06:49:14;60.27;;;31.33;;
7985;SDS011;4038;42.612;23.066;2023-02-28T06:51:40;54.40;;;30.20;;
7985;SDS011;4038;42.612;23.066;2023-02-28T06:54:09;47.27;;;31.20;;
7985;SDS011;4038;42.612;23.066;2023-02-28T06:56:36;38.03;;;30.60;;
7985;SDS011;4038;42.612;23.066;2023-02-28T06:59:02;44.53;;;31.53;;
7985;SDS011;4038;42.612;23.066;2023-02-28T07:01:28;41.13;;;32.30;;
7985;SDS011;4038;42.612;23.066;2023-02-28T07:03:54;52.13;;;33.17;;
7985;SDS011;4038;42.612;23.066;2023-02-28T07:06:20;58.60;;;32.33;;
7985;SDS011;4038;42.612;23.066;2023-02-28T07:08:47;53.77;;;34.00;;
7985;SDS011;4038;42.612;23.066;2023-02-28T07:11:14;53.77;;;34.60;;
7985;SDS011;4038;42.612;23.066;2023-02-28T07:13:39;39.97;;;33.27;;
7985;SDS011;4038;42.612;23.066;2023-02-28T07:16:05;44.00;;;33.20;;
7985;SDS011;4038;42.612;23.066;2023-02-28T07:18:34;37.87;;;32.40;;
7985;SDS011;4038;42.612;23.066;2023-02-28T07:21:04;39.60;;;32.00;;
7985;SDS011;4038;42.612;23.066;2023-02-28T07:23:31;35.53;;;29.13;;
7985;SDS011;4038;42.612;23.066;2023-02-28T07:25:56;30.57;;;27.10;;
7985;SDS011;4038;42.612;23.066;2023-02-28T07:28:22;28.80;;;25.97;;
7985;SDS011;4038;42.612;23.066;2023-02-28T07:30:48;29.03;;;26.33;;
7985;SDS011;4038;42.612;23.066;2023-02-28T07:33:13;33.63;;;28.70;;
7985;SDS011;4038;42.612;23.066;2023-02-28T07:35:39;30.63;;;27.33;;
7985;SDS011;4038;42.612;23.066;2023-02-28T07:38:05;35.60;;;28.90;;
7985;SDS011;4038;42.612;23.066;2023-02-28T07:40:32;39.53;;;29.93;;
7985;SDS011;4038;42.612;23.066;2023-02-28T07:43:02;39.33;;;30.53;;
7985;SDS011;4038;42.612;23.066;2023-02-28T07:45:28;41.23;;;31.10;;
7985;SDS011;4038;42.612;23.066;2023-02-28T07:47:54;36.83;;;29.83;;
7985;SDS011;4038;42.612;23.066;2023-02-28T07:50:21;35.60;;;28.63;;
7985;SDS011;4038;42.612;23.066;2023-02-28T07:52:47;33.97;;;30.38;;
7985;SDS011;4038;42.612;23.066;2023-02-28T07:55:12;35.55;;;29.85;;
7985;SDS011;4038;42.612;23.066;2023-02-28T07:57:39;55.97;;;33.50;;
7985;SDS011;4038;42.612;23.066;2023-02-28T08:00:05;43.20;;;33.43;;
7985;SDS011;4038;42.612;23.066;2023-02-28T08:02:34;46.00;;;35.70;;
7985;SDS011;4038;42.612;23.066;2023-02-28T08:05:00;40.23;;;35.83;;
7985;SDS011;4038;42.612;23.066;2023-02-28T08:07:26;42.77;;;35.33;;
7985;SDS011;4038;42.612;23.066;2023-02-28T08:09:52;41.60;;;35.43;;
7985;SDS011;4038;42.612;23.066;2023-02-28T08:14:42;44.92;;;39.17;;
7985;SDS011;4038;42.612;23.066;2023-02-28T08:17:09;52.08;;;41.70;;
7985;SDS011;4038;42.612;23.066;2023-02-28T08:19:35;50.00;;;41.10;;
7985;SDS011;4038;42.612;23.066;2023-02-28T08:22:00;55.63;;;43.53;;
7985;SDS011;4038;42.612;23.066;2023-02-28T08:24:26;46.63;;;40.60;;
7985;SDS011;4038;42.612;23.066;2023-02-28T08:26:52;49.30;;;42.07;;
7985;SDS011;4038;42.612;23.066;2023-02-28T08:29:17;48.47;;;43.10;;
7985;SDS011;4038;42.612;23.066;2023-02-28T08:31:43;42.60;;;37.73;;
7985;SDS011;4038;42.612;23.066;2023-02-28T08:34:09;45.00;;;38.50;;
7985;SDS011;4038;42.612;23.066;2023-02-28T08:36:36;43.65;;;39.05;;
7985;SDS011;4038;42.612;23.066;2023-02-28T08:39:01;43.47;;;37.53;;
7985;SDS011;4038;42.612;23.066;2023-02-28T08:41:27;39.17;;;34.83;;
7985;SDS011;4038;42.612;23.066;2023-02-28T08:43:53;33.97;;;30.47;;
7985;SDS011;4038;42.612;23.066;2023-02-28T08:46:18;33.27;;;30.07;;
7985;SDS011;4038;42.612;23.066;2023-02-28T08:48:44;31.30;;;28.10;;
7985;SDS011;4038;42.612;23.066;2023-02-28T08:51:11;31.03;;;27.83;;
7985;SDS011;4038;42.612;23.066;2023-02-28T08:53:43;31.13;;;28.33;;
7985;SDS011;4038;42.612;23.066;2023-02-28T08:56:14;31.67;;;28.50;;
7985;SDS011;4038;42.612;23.066;2023-02-28T08:58:41;32.60;;;29.52;;
7985;SDS011;4038;42.612;23.066;2023-02-28T09:01:28;31.17;;;27.98;;
7985;SDS011;4038;42.612;23.066;2023-02-28T09:03:53;30.10;;;27.17;;
7985;SDS011;4038;42.612;23.066;2023-02-28T09:06:20;30.27;;;27.50;;
7985;SDS011;4038;42.612;23.066;2023-02-28T09:08:48;32.17;;;29.23;;
7985;SDS011;4038;42.612;23.066;2023-02-28T09:11:14;31.88;;;29.02;;
7985;SDS011;4038;42.612;23.066;2023-02-28T09:13:40;29.55;;;26.63;;
7985;SDS011;4038;42.612;23.066;2023-02-28T09:16:06;30.25;;;27.42;;
7985;SDS011;4038;42.612;23.066;2023-02-28T09:18:34;32.10;;;29.20;;
7985;SDS011;4038;42.612;23.066;2023-02-28T09:21:03;33.78;;;30.33;;
7985;SDS011;4038;42.612;23.066;2023-02-28T09:23:31;35.60;;;32.13;;
7985;SDS011;4038;42.612;23.066;2023-02-28T09:25:57;34.58;;;31.15;;
7985;SDS011;4038;42.612;23.066;2023-02-28T09:28:22;107.53;;;45.95;;
7985;SDS011;4038;42.612;23.066;2023-02-28T09:30:49;36.53;;;32.92;;
7985;SDS011;4038;42.612;23.066;2023-02-28T09:33:16;34.55;;;31.25;;
7985;SDS011;4038;42.612;23.066;2023-02-28T09:35:46;40.28;;;33.22;;
7985;SDS011;4038;42.612;23.066;2023-02-28T09:38:13;38.38;;;34.50;;
7985;SDS011;4038;42.612;23.066;2023-02-28T09:40:40;39.35;;;34.55;;
7985;SDS011;4038;42.612;23.066;2023-02-28T09:43:14;72.70;;;38.45;;
7985;SDS011;4038;42.612;23.066;2023-02-28T09:45:42;95.30;;;43.42;;
7985;SDS011;4038;42.612;23.066;2023-02-28T09:48:19;107.22;;;47.10;;
7985;SDS011;4038;42.612;23.066;2023-02-28T09:50:52;62.22;;;37.55;;
7985;SDS011;4038;42.612;23.066;2023-02-28T09:53:36;44.15;;;38.72;;
7985;SDS011;4038;42.612;23.066;2023-02-28T09:56:05;46.38;;;39.15;;
7985;SDS011;4038;42.612;23.066;2023-02-28T10:03:50;52.13;;;46.72;;
7985;SDS011;4038;42.612;23.066;2023-02-28T10:06:26;48.85;;;43.70;;
7985;SDS011;4038;42.612;23.066;2023-02-28T10:09:07;48.08;;;42.45;;
7985;SDS011;4038;42.612;23.066;2023-02-28T10:11:39;60.25;;;41.92;;
7985;SDS011;4038;42.612;23.066;2023-02-28T10:14:12;56.00;;;40.38;;
7985;SDS011;4038;42.612;23.066;2023-02-28T10:16:49;45.45;;;38.35;;
7985;SDS011;4038;42.612;23.066;2023-02-28T10:22:19;44.33;;;39.80;;
7985;SDS011;4038;42.612;23.066;2023-02-28T10:24:50;45.67;;;40.78;;
7985;SDS011;4038;42.612;23.066;2023-02-28T10:27:20;70.70;;;43.35;;
7985;SDS011;4038;42.612;23.066;2023-02-28T10:29:48;44.10;;;38.67;;
7985;SDS011;4038;42.612;23.066;2023-02-28T10:32:21;46.03;;;40.92;;
7985;SDS011;4038;42.612;23.066;2023-02-28T10:35:14;45.33;;;38.75;;
7985;SDS011;4038;42.612;23.066;2023-02-28T10:37:38;41.65;;;36.97;;
7985;SDS011;4038;42.612;23.066;2023-02-28T10:42:42;42.65;;;37.85;;
7985;SDS011;4038;42.612;23.066;2023-02-28T10:45:30;43.42;;;38.75;;
7985;SDS011;4038;42.612;23.066;2023-02-28T10:48:01;45.25;;;40.55;;
7985;SDS011;4038;42.612;23.066;2023-02-28T11:01:22;42.67;;;38.63;;
7985;SDS011;4038;42.612;23.066;2023-02-28T11:03:51;47.85;;;41.90;;
7985;SDS011;4038;42.612;23.066;2023-02-28T11:06:33;49.70;;;43.97;;
7985;SDS011;4038;42.612;23.066;2023-02-28T11:09:00;41.47;;;37.47;;
7985;SDS011;4038;42.612;23.066;2023-02-28T11:11:32;46.28;;;39.83;;
7985;SDS011;4038;42.612;23.066;2023-02-28T11:14:25;42.30;;;37.90;;
7985;SDS011;4038;42.612;23.066;2023-02-28T11:16:54;42.03;;;37.92;;
7985;SDS011;4038;42.612;23.066;2023-02-28T11:19:23;41.72;;;37.70;;
7985;SDS011;4038;42.612;23.066;2023-02-28T11:21:56;43.80;;;39.33;;
7985;SDS011;4038;42.612;23.066;2023-02-28T11:24:28;42.85;;;38.47;;
7985;SDS011;4038;42.612;23.066;2023-02-28T11:26:57;44.92;;;40.53;;
7985;SDS011;4038;42.612;23.066;2023-02-28T11:29:24;43.22;;;38.80;;
7985;SDS011;4038;42.612;23.066;2023-02-28T11:34:33;39.75;;;36.10;;
7985;SDS011;4038;42.612;23.066;2023-02-28T11:37:00;41.22;;;36.92;;
7985;SDS011;4038;42.612;23.066;2023-02-28T11:39:30;41.70;;;37.35;;
7985;SDS011;4038;42.612;23.066;2023-02-28T11:47:30;39.95;;;35.38;;
7985;SDS011;4038;42.612;23.066;2023-02-28T11:52:30;46.05;;;40.22;;
7985;SDS011;4038;42.612;23.066;2023-02-28T12:03:31;49.50;;;40.50;;
7985;SDS011;4038;42.612;23.066;2023-02-28T12:14:07;45.05;;;40.53;;
7985;SDS011;4038;42.612;23.066;2023-02-28T12:27:32;41.55;;;36.08;;
7985;SDS011;4038;42.612;23.066;2023-02-28T12:30:46;45.60;;;38.00;;
7985;SDS011;4038;42.612;23.066;2023-02-28T12:33:01;44.75;;;38.17;;
7985;SDS011;4038;42.612;23.066;2023-02-28T12:35:34;41.88;;;37.08;;
7985;SDS011;4038;42.612;23.066;2023-02-28T12:38:05;44.55;;;36.08;;
7985;SDS011;4038;42.612;23.066;2023-02-28T12:40:43;41.78;;;37.47;;
7985;SDS011;4038;42.612;23.066;2023-02-28T12:43:13;46.03;;;38.80;;
7985;SDS011;4038;42.612;23.066;2023-02-28T12:49:00;42.38;;;37.90;;
7985;SDS011;4038;42.612;23.066;2023-02-28T12:51:07;40.72;;;36.45;;
7985;SDS011;4038;42.612;23.066;2023-02-28T12:56:09;40.22;;;35.05;;
7985;SDS011;4038;42.612;23.066;2023-02-28T12:58:48;40.95;;;35.40;;
7985;SDS011;4038;42.612;23.066;2023-02-28T13:01:36;39.72;;;36.00;;
7985;SDS011;4038;42.612;23.066;2023-02-28T13:09:40;40.63;;;36.67;;
7985;SDS011;4038;42.612;23.066;2023-02-28T13:12:15;41.42;;;36.95;;
7985;SDS011;4038;42.612;23.066;2023-02-28T13:14:41;41.13;;;36.75;;
7985;SDS011;4038;42.612;23.066;2023-02-28T13:19:40;41.50;;;37.20;;
7985;SDS011;4038;42.612;23.066;2023-02-28T13:22:19;45.10;;;37.97;;
7985;SDS011;4038;42.612;23.066;2023-02-28T13:27:51;41.35;;;37.22;;
7985;SDS011;4038;42.612;23.066;2023-02-28T13:35:45;41.15;;;37.00;;
7985;SDS011;4038;42.612;23.066;2023-02-28T13:38:45;41.22;;;37.08;;
7985;SDS011;4038;42.612;23.066;2023-02-28T13:46:28;35.05;;;31.50;;
7985;SDS011;4038;42.612;23.066;2023-02-28T13:48:54;33.78;;;30.33;;
7985;SDS011;4038;42.612;23.066;2023-02-28T13:51:27;34.33;;;30.58;;
7985;SDS011;4038;42.612;23.066;2023-02-28T13:54:53;31.67;;;28.27;;
7985;SDS011;4038;42.612;23.066;2023-02-28T14:06:07;35.78;;;29.00;;
7985;SDS011;4038;42.612;23.066;2023-02-28T14:08:33;31.75;;;28.70;;
7985;SDS011;4038;42.612;23.066;2023-02-28T14:11:04;32.25;;;28.92;;
7985;SDS011;4038;42.612;23.066;2023-02-28T14:13:52;32.95;;;29.70;;
7985;SDS011;4038;42.612;23.066;2023-02-28T14:16:20;34.83;;;31.15;;
7985;SDS011;4038;42.612;23.066;2023-02-28T14:18:49;39.70;;;30.98;;
7985;SDS011;4038;42.612;23.066;2023-02-28T14:34:25;31.77;;;28.23;;
7985;SDS011;4038;42.612;23.066;2023-02-28T14:36:52;32.22;;;29.08;;
7985;SDS011;4038;42.612;23.066;2023-02-28T14:39:20;32.67;;;29.48;;
7985;SDS011;4038;42.612;23.066;2023-02-28T14:41:48;33.40;;;29.85;;
7985;SDS011;4038;42.612;23.066;2023-02-28T14:44:21;32.72;;;28.77;;
7985;SDS011;4038;42.612;23.066;2023-02-28T14:46:49;34.63;;;30.33;;
7985;SDS011;4038;42.612;23.066;2023-02-28T14:51:46;33.53;;;28.75;;
7985;SDS011;4038;42.612;23.066;2023-02-28T14:54:15;31.90;;;28.65;;
7985;SDS011;4038;42.612;23.066;2023-02-28T14:56:42;34.53;;;30.08;;
7985;SDS011;4038;42.612;23.066;2023-02-28T15:04:43;32.28;;;28.80;;
7985;SDS011;4038;42.612;23.066;2023-02-28T15:07:16;33.05;;;28.88;;
7985;SDS011;4038;42.612;23.066;2023-02-28T15:09:42;30.00;;;27.10;;
7985;SDS011;4038;42.612;23.066;2023-02-28T15:12:07;33.92;;;30.42;;
7985;SDS011;4038;42.612;23.066;2023-02-28T15:14:41;32.38;;;28.80;;
7985;SDS011;4038;42.612;23.066;2023-02-28T15:17:11;31.55;;;28.50;;
7985;SDS011;4038;42.612;23.066;2023-02-28T15:19:46;32.22;;;28.13;;
7985;SDS011;4038;42.612;23.066;2023-02-28T15:22:18;33.65;;;28.00;;
7985;SDS011;4038;42.612;23.066;2023-02-28T15:24:50;30.85;;;27.65;;
7985;SDS011;4038;42.612;23.066;2023-02-28T15:27:21;31.20;;;28.40;;
7985;SDS011;4038;42.612;23.066;2023-02-28T15:29:51;31.13;;;27.92;;
7985;SDS011;4038;42.612;23.066;2023-02-28T15:34:50;30.42;;;27.58;;
7985;SDS011;4038;42.612;23.066;2023-02-28T15:38:03;31.15;;;28.35;;
7985;SDS011;4038;42.612;23.066;2023-02-28T15:40:12;31.50;;;28.45;;
7985;SDS011;4038;42.612;23.066;2023-02-28T15:43:14;29.92;;;26.95;;
7985;SDS011;4038;42.612;23.066;2023-02-28T15:45:45;30.35;;;27.40;;
7985;SDS011;4038;42.612;23.066;2023-02-28T15:48:33;29.48;;;26.80;;
7985;SDS011;4038;42.612;23.066;2023-02-28T15:51:17;31.40;;;28.40;;
7985;SDS011;4038;42.612;23.066;2023-02-28T15:56:24;32.40;;;28.98;;
7985;SDS011;4038;42.612;23.066;2023-02-28T15:58:53;32.22;;;29.02;;
7985;SDS011;4038;42.612;23.066;2023-02-28T16:01:26;31.40;;;28.23;;
7985;SDS011;4038;42.612;23.066;2023-02-28T16:03:55;29.70;;;26.85;;
7985;SDS011;4038;42.612;23.066;2023-02-28T16:08:57;29.50;;;25.85;;
7985;SDS011;4038;42.612;23.066;2023-02-28T16:11:22;28.40;;;25.75;;
7985;SDS011;4038;42.612;23.066;2023-02-28T16:13:48;29.80;;;27.30;;
7985;SDS011;4038;42.612;23.066;2023-02-28T16:16:16;30.98;;;27.75;;
7985;SDS011;4038;42.612;23.066;2023-02-28T16:18:43;34.75;;;31.25;;
7985;SDS011;4038;42.612;23.066;2023-02-28T16:21:08;29.73;;;26.80;;
7985;SDS011;4038;42.612;23.066;2023-02-28T16:23:34;31.00;;;27.85;;
7985;SDS011;4038;42.612;23.066;2023-02-28T16:25:59;30.83;;;27.90;;
7985;SDS011;4038;42.612;23.066;2023-02-28T16:28:26;31.05;;;27.25;;
7985;SDS011;4038;42.612;23.066;2023-02-28T16:31:01;33.53;;;28.17;;
7985;SDS011;4038;42.612;23.066;2023-02-28T16:33:31;30.02;;;27.35;;
7985;SDS011;4038;42.612;23.066;2023-02-28T16:35:58;82.57;;;64.68;;
7985;SDS011;4038;42.612;23.066;2023-02-28T16:38:23;29.55;;;26.77;;
7985;SDS011;4038;42.612;23.066;2023-02-28T16:40:50;31.80;;;28.73;;
7985;SDS011;4038;42.612;23.066;2023-02-28T16:43:17;30.23;;;27.33;;
7985;SDS011;4038;42.612;23.066;2023-02-28T16:45:46;29.83;;;26.73;;
7985;SDS011;4038;42.612;23.066;2023-02-28T16:48:13;28.80;;;25.98;;
7985;SDS011;4038;42.612;23.066;2023-02-28T16:50:40;29.58;;;26.52;;
7985;SDS011;4038;42.612;23.066;2023-02-28T16:53:06;29.23;;;26.60;;
7985;SDS011;4038;42.612;23.066;2023-02-28T16:55:31;29.88;;;27.15;;
7985;SDS011;4038;42.612;23.066;2023-02-28T16:57:58;29.38;;;26.58;;
7985;SDS011;4038;42.612;23.066;2023-02-28T17:00:26;28.63;;;25.75;;
7985;SDS011;4038;42.612;23.066;2023-02-28T17:02:53;28.58;;;26.17;;
7985;SDS011;4038;42.612;23.066;2023-02-28T17:05:18;29.23;;;26.73;;
7985;SDS011;4038;42.612;23.066;2023-02-28T17:07:44;29.77;;;27.17;;
7985;SDS011;4038;42.612;23.066;2023-02-28T17:10:21;29.17;;;26.58;;
7985;SDS011;4038;42.612;23.066;2023-02-28T17:12:50;30.08;;;27.40;;
7985;SDS011;4038;42.612;23.066;2023-02-28T17:15:17;28.83;;;26.33;;
7985;SDS011;4038;42.612;23.066;2023-02-28T17:17:44;30.13;;;27.10;;
7985;SDS011;4038;42.612;23.066;2023-02-28T17:20:14;29.13;;;26.73;;
7985;SDS011;4038;42.612;23.066;2023-02-28T17:22:42;28.38;;;26.02;;